createdAt,value
2019-01-05T00:00:11.291Z,1020.90
2019-01-05T00:01:11.278Z,1020.87
2019-01-05T00:02:11.275Z,1020.93
2019-01-05T00:03:11.263Z,1020.87
2019-01-05T00:04:11.245Z,1020.90
2019-01-05T00:05:11.235Z,1020.91
2019-01-05T00:06:11.236Z,1020.87
2019-01-05T00:07:11.207Z,1020.88
2019-01-05T00:08:11.226Z,1020.84
2019-01-05T00:09:11.201Z,1020.86
2019-01-05T00:10:11.196Z,1020.90
2019-01-05T00:11:11.171Z,1020.84
2019-01-05T00:12:11.154Z,1020.87
2019-01-05T00:13:11.154Z,1020.86
2019-01-05T00:14:11.132Z,1020.81
2019-01-05T00:15:11.122Z,1020.79
2019-01-05T00:16:11.112Z,1020.82
2019-01-05T00:17:11.106Z,1020.80
2019-01-05T00:18:11.101Z,1020.74
2019-01-05T00:19:11.079Z,1020.70
2019-01-05T00:20:11.062Z,1020.70
2019-01-05T00:21:11.059Z,1020.68
2019-01-05T00:22:11.040Z,1020.71
2019-01-05T00:23:11.063Z,1020.68
2019-01-05T00:24:11.031Z,1020.63
2019-01-05T00:25:11.017Z,1020.64
2019-01-05T00:26:10.996Z,1020.61
2019-01-05T00:27:10.983Z,1020.65
2019-01-05T00:28:10.992Z,1020.60
2019-01-05T00:29:10.963Z,1020.56
2019-01-05T00:30:10.956Z,1020.63
2019-01-05T00:31:10.950Z,1020.57
2019-01-05T00:32:10.945Z,1020.59
2019-01-05T00:33:10.947Z,1020.55
2019-01-05T00:34:10.915Z,1020.58
2019-01-05T00:35:10.904Z,1020.54
2019-01-05T00:36:10.892Z,1020.49
2019-01-05T00:37:10.873Z,1020.51
2019-01-05T00:38:10.881Z,1020.52
2019-01-05T00:39:10.854Z,1020.51
2019-01-05T00:40:16.903Z,1020.42
2019-01-05T00:41:11.858Z,1020.46
2019-01-05T00:42:10.817Z,1020.45
2019-01-05T00:43:10.864Z,1020.40
2019-01-05T00:44:10.799Z,1020.42
2019-01-05T00:45:10.781Z,1020.41
2019-01-05T00:46:10.775Z,1020.46
2019-01-05T00:47:10.768Z,1020.50
2019-01-05T00:48:10.771Z,1020.50
2019-01-05T00:49:10.741Z,1020.48
2019-01-05T00:50:10.738Z,1020.46
2019-01-05T00:51:10.722Z,1020.43
2019-01-05T00:52:10.704Z,1020.43
2019-01-05T00:53:10.707Z,1020.40
2019-01-05T00:54:10.698Z,1020.49
2019-01-05T00:55:10.675Z,1020.43
2019-01-05T00:56:10.686Z,1020.39
2019-01-05T00:57:10.651Z,1020.44
2019-01-05T00:58:10.651Z,1020.47
2019-01-05T00:59:10.631Z,1020.45
2019-01-05T01:00:10.614Z,1020.41
2019-01-05T01:01:10.608Z,1020.44
2019-01-05T01:02:10.602Z,1020.44
2019-01-05T01:03:10.595Z,1020.51
2019-01-05T01:04:10.577Z,1020.44
2019-01-05T01:05:10.562Z,1020.43
2019-01-05T01:06:10.556Z,1020.46
2019-01-05T01:07:10.539Z,1020.44
2019-01-05T01:08:10.557Z,1020.45
2019-01-05T01:09:10.521Z,1020.45
2019-01-05T01:10:10.507Z,1020.41
2019-01-05T01:11:10.493Z,1020.45
2019-01-05T01:12:10.480Z,1020.43
2019-01-05T01:13:10.469Z,1020.42
2019-01-05T01:14:10.475Z,1020.37
2019-01-05T01:15:10.521Z,1020.44
2019-01-05T01:16:10.439Z,1020.41
2019-01-05T01:17:10.427Z,1020.40
2019-01-05T01:18:10.427Z,1020.40
2019-01-05T01:19:10.428Z,1020.44
2019-01-05T01:20:10.392Z,1020.40
2019-01-05T01:21:10.381Z,1020.39
2019-01-05T01:22:10.426Z,1020.36
2019-01-05T01:23:10.363Z,1020.30
2019-01-05T01:24:10.390Z,1020.37
2019-01-05T01:25:10.360Z,1020.28
2019-01-05T01:26:10.328Z,1020.29
2019-01-05T01:27:10.312Z,1020.28
2019-01-05T01:28:10.311Z,1020.24
2019-01-05T01:29:10.358Z,1020.28
2019-01-05T01:30:10.279Z,1020.31
2019-01-05T01:31:11.407Z,1020.32
2019-01-05T01:32:10.266Z,1020.25
2019-01-05T01:33:10.246Z,1020.25
2019-01-05T01:34:10.257Z,1020.20
2019-01-05T01:35:10.256Z,1020.17
2019-01-05T01:36:10.243Z,1020.20
2019-01-05T01:37:10.204Z,1020.17
2019-01-05T01:38:10.189Z,1020.12
2019-01-05T01:39:10.189Z,1020.11
2019-01-05T01:40:10.171Z,1020.14
2019-01-05T01:41:10.156Z,1020.13
2019-01-05T01:42:10.174Z,1020.07
2019-01-05T01:43:10.149Z,1020.07
2019-01-05T01:44:10.136Z,1020.05
2019-01-05T01:45:10.118Z,1020.00
2019-01-05T01:46:10.110Z,1020.05
2019-01-05T01:47:10.087Z,1020.04
2019-01-05T01:48:10.078Z,1019.96
2019-01-05T01:49:10.087Z,1020.01
2019-01-05T01:50:10.062Z,1019.99
2019-01-05T01:51:10.050Z,1019.96
2019-01-05T01:52:10.077Z,1019.89
2019-01-05T01:53:10.023Z,1019.89
2019-01-05T01:54:10.033Z,1019.90
2019-01-05T01:55:10.034Z,1019.95
2019-01-05T01:56:09.986Z,1019.92
2019-01-05T01:57:09.979Z,1019.91
2019-01-05T01:58:09.967Z,1019.91
2019-01-05T01:59:10.024Z,1019.85
2019-01-05T02:00:09.953Z,1019.86
2019-01-05T02:01:09.935Z,1019.88
2019-01-05T02:02:09.926Z,1019.87
2019-01-05T02:03:09.917Z,1019.85
2019-01-05T02:04:09.927Z,1019.85
2019-01-05T02:05:09.899Z,1019.88
2019-01-05T02:06:09.874Z,1019.84
2019-01-05T02:07:09.880Z,1019.84
2019-01-05T02:08:09.858Z,1019.85
2019-01-05T02:09:09.847Z,1019.83
2019-01-05T02:10:09.841Z,1019.77
2019-01-05T02:11:09.828Z,1019.80
2019-01-05T02:12:09.807Z,1019.79
2019-01-05T02:13:09.797Z,1019.73
2019-01-05T02:14:09.786Z,1019.77
2019-01-05T02:15:09.791Z,1019.72
2019-01-05T02:16:09.772Z,1019.77
2019-01-05T02:17:09.751Z,1019.75
2019-01-05T02:18:09.753Z,1019.72
2019-01-05T02:19:09.728Z,1019.71
2019-01-05T02:20:09.734Z,1019.72
2019-01-05T02:21:09.705Z,1019.69
2019-01-05T02:22:09.748Z,1019.66
2019-01-05T02:23:09.682Z,1019.57
2019-01-05T02:24:09.673Z,1019.56
2019-01-05T02:25:09.673Z,1019.54
2019-01-05T02:26:09.653Z,1019.47
2019-01-05T02:27:09.641Z,1019.50
2019-01-05T02:28:09.683Z,1019.47
2019-01-05T02:29:09.618Z,1019.42
2019-01-05T02:30:09.616Z,1019.42
2019-01-05T02:31:09.594Z,1019.41
2019-01-05T02:32:09.583Z,1019.42
2019-01-05T02:33:09.575Z,1019.41
2019-01-05T02:34:09.589Z,1019.40
2019-01-05T02:35:09.628Z,1019.46
2019-01-05T02:36:09.563Z,1019.42
2019-01-05T02:37:09.528Z,1019.42
2019-01-05T02:38:09.520Z,1019.41
2019-01-05T02:39:09.511Z,1019.42
2019-01-05T02:40:09.528Z,1019.42
2019-01-05T02:41:09.494Z,1019.38
2019-01-05T02:42:09.475Z,1019.38
2019-01-05T02:43:09.477Z,1019.36
2019-01-05T02:44:09.450Z,1019.35
2019-01-05T02:45:09.454Z,1019.33
2019-01-05T02:46:09.429Z,1019.32
2019-01-05T02:47:09.419Z,1019.32
2019-01-05T02:48:09.424Z,1019.25
2019-01-05T02:49:09.398Z,1019.22
2019-01-05T02:50:09.391Z,1019.17
2019-01-05T02:51:09.400Z,1019.20
2019-01-05T02:52:09.360Z,1019.17
2019-01-05T02:53:09.351Z,1019.14
2019-01-05T02:54:09.347Z,1019.15
2019-01-05T02:55:09.349Z,1019.16
2019-01-05T02:56:09.316Z,1019.14
2019-01-05T02:57:09.324Z,1019.12
2019-01-05T02:58:09.299Z,1019.10
2019-01-05T02:59:09.281Z,1019.10
2019-01-05T03:00:09.314Z,1019.08
2019-01-05T03:01:09.273Z,1019.07
2019-01-05T03:02:09.252Z,1019.08
2019-01-05T03:03:09.238Z,1019.07
2019-01-05T03:04:09.236Z,1019.13
2019-01-05T03:05:09.267Z,1019.08
2019-01-05T03:06:09.220Z,1019.11
2019-01-05T03:07:09.191Z,1019.12
2019-01-05T03:08:09.184Z,1019.07
2019-01-05T03:09:09.169Z,1019.00
2019-01-05T03:10:09.157Z,1018.99
2019-01-05T03:11:09.171Z,1018.97
2019-01-05T03:12:09.142Z,1018.94
2019-01-05T03:13:09.124Z,1018.94
2019-01-05T03:14:09.134Z,1018.97
2019-01-05T03:15:09.111Z,1018.99
2019-01-05T03:16:09.102Z,1019.01
2019-01-05T03:17:09.079Z,1019.00
2019-01-05T03:18:09.086Z,1018.96
2019-01-05T03:19:09.068Z,1018.94
2019-01-05T03:20:09.051Z,1018.91
2019-01-05T03:21:09.051Z,1018.88
2019-01-05T03:22:09.031Z,1018.87
2019-01-05T03:23:09.014Z,1018.82
2019-01-05T03:24:09.033Z,1018.83
2019-01-05T03:25:09.029Z,1018.81
2019-01-05T03:26:08.997Z,1018.78
2019-01-05T03:27:08.985Z,1018.80
2019-01-05T03:28:08.961Z,1018.71
2019-01-05T03:29:08.948Z,1018.70
2019-01-05T03:30:08.939Z,1018.67
2019-01-05T03:31:08.945Z,1018.67
2019-01-05T03:32:08.966Z,1018.64
2019-01-05T03:33:08.913Z,1018.62
2019-01-05T03:34:08.892Z,1018.67
2019-01-05T03:35:08.897Z,1018.65
2019-01-05T03:36:08.882Z,1018.69
2019-01-05T03:37:08.881Z,1018.70
2019-01-05T03:38:08.853Z,1018.62
2019-01-05T03:39:08.837Z,1018.66
2019-01-05T03:40:08.827Z,1018.61
2019-01-05T03:41:08.836Z,1018.66
2019-01-05T03:42:08.799Z,1018.65
2019-01-05T03:43:08.796Z,1018.60
2019-01-05T03:44:08.780Z,1018.61
2019-01-05T03:45:08.774Z,1018.57
2019-01-05T03:46:08.791Z,1018.60
2019-01-05T03:47:08.744Z,1018.53
2019-01-05T03:48:08.732Z,1018.45
2019-01-05T03:49:08.731Z,1018.39
2019-01-05T03:50:08.725Z,1018.39
2019-01-05T03:51:08.701Z,1018.31
2019-01-05T03:52:08.722Z,1018.30
2019-01-05T03:53:08.679Z,1018.29
2019-01-05T03:54:08.675Z,1018.29
2019-01-05T03:55:08.662Z,1018.33
2019-01-05T03:56:08.645Z,1018.30
2019-01-05T03:57:08.650Z,1018.28
2019-01-05T03:58:08.621Z,1018.27
2019-01-05T03:59:08.629Z,1018.33
2019-01-05T04:00:08.642Z,1018.30
2019-01-05T04:01:08.589Z,1018.28
2019-01-05T04:02:08.591Z,1018.31
2019-01-05T04:03:08.569Z,1018.26
2019-01-05T04:04:08.558Z,1018.21
2019-01-05T04:05:08.544Z,1018.15
2019-01-05T04:06:08.532Z,1018.10
2019-01-05T04:07:08.579Z,1018.11
2019-01-05T04:08:08.513Z,1018.14
2019-01-05T04:09:08.505Z,1018.12
2019-01-05T04:10:08.502Z,1018.13
2019-01-05T04:11:08.484Z,1018.14
2019-01-05T04:12:08.497Z,1018.14
2019-01-05T04:13:08.475Z,1018.13
2019-01-05T04:14:08.488Z,1018.09
2019-01-05T04:15:08.431Z,1018.06
2019-01-05T04:16:08.428Z,1018.04
2019-01-05T04:17:08.429Z,1018.01
2019-01-05T04:18:08.411Z,1018.02
2019-01-05T04:19:08.397Z,1018.02
2019-01-05T04:20:08.378Z,1017.96
2019-01-05T04:21:08.373Z,1017.96
2019-01-05T04:22:08.369Z,1017.92
2019-01-05T04:23:08.376Z,1017.84
2019-01-05T04:24:08.335Z,1017.77
2019-01-05T04:25:08.324Z,1017.77
2019-01-05T04:26:08.311Z,1017.70
2019-01-05T04:27:08.317Z,1017.71
2019-01-05T04:28:08.286Z,1017.68
2019-01-05T04:29:08.284Z,1017.71
2019-01-05T04:30:08.262Z,1017.75
2019-01-05T04:31:08.262Z,1017.69
2019-01-05T04:32:08.252Z,1017.68
2019-01-05T04:33:08.232Z,1017.75
2019-01-05T04:34:08.224Z,1017.69
2019-01-05T04:35:08.227Z,1017.66
2019-01-05T04:36:08.214Z,1017.64
2019-01-05T04:37:08.201Z,1017.62
2019-01-05T04:38:08.179Z,1017.64
2019-01-05T04:39:08.162Z,1017.66
2019-01-05T04:40:08.153Z,1017.65
2019-01-05T04:41:08.152Z,1017.66
2019-01-05T04:42:08.184Z,1017.72
2019-01-05T04:43:08.120Z,1017.69
2019-01-05T04:44:08.114Z,1017.66
2019-01-05T04:45:08.096Z,1017.68
2019-01-05T04:46:08.116Z,1017.63
2019-01-05T04:47:08.080Z,1017.62
2019-01-05T04:48:08.084Z,1017.60
2019-01-05T04:49:08.056Z,1017.63
2019-01-05T04:50:08.047Z,1017.58
2019-01-05T04:51:08.034Z,1017.57
2019-01-05T04:52:08.018Z,1017.53
2019-01-05T04:53:08.020Z,1017.53
2019-01-05T04:54:07.996Z,1017.51
2019-01-05T04:55:07.984Z,1017.55
2019-01-05T04:56:07.976Z,1017.53
2019-01-05T04:57:07.966Z,1017.50
2019-01-05T04:58:07.970Z,1017.43
2019-01-05T04:59:07.962Z,1017.42
2019-01-05T05:00:07.931Z,1017.38
2019-01-05T05:01:07.918Z,1017.40
2019-01-05T05:02:07.913Z,1017.41
2019-01-05T05:03:07.906Z,1017.42
2019-01-05T05:04:07.886Z,1017.38
2019-01-05T05:05:07.874Z,1017.38
2019-01-05T05:06:07.864Z,1017.39
2019-01-05T05:07:07.850Z,1017.33
2019-01-05T05:08:07.879Z,1017.34
2019-01-05T05:09:07.854Z,1017.27
2019-01-05T05:10:07.824Z,1017.27
2019-01-05T05:11:07.809Z,1017.22
2019-01-05T05:12:07.831Z,1017.28
2019-01-05T05:13:07.799Z,1017.32
2019-01-05T05:14:07.773Z,1017.33
2019-01-05T05:15:07.761Z,1017.42
2019-01-05T05:16:07.758Z,1017.42
2019-01-05T05:17:07.755Z,1017.43
2019-01-05T05:18:07.749Z,1017.44
2019-01-05T05:19:07.716Z,1017.34
2019-01-05T05:20:07.725Z,1017.33
2019-01-05T05:21:07.693Z,1017.26
2019-01-05T05:22:07.737Z,1017.26
2019-01-05T05:23:07.705Z,1017.24
2019-01-05T05:24:07.662Z,1017.32
2019-01-05T05:25:07.647Z,1017.28
2019-01-05T05:26:07.636Z,1017.28
2019-01-05T05:27:07.638Z,1017.29
2019-01-05T05:28:07.643Z,1017.29
2019-01-05T05:29:07.618Z,1017.27
2019-01-05T05:30:07.598Z,1017.22
2019-01-05T05:31:07.605Z,1017.24
2019-01-05T05:32:07.604Z,1017.26
2019-01-05T05:33:07.573Z,1017.28
2019-01-05T05:34:07.568Z,1017.30
2019-01-05T05:35:07.539Z,1017.24
2019-01-05T05:36:07.529Z,1017.23
2019-01-05T05:37:07.632Z,1017.24
2019-01-05T05:38:07.543Z,1017.23
2019-01-05T05:39:07.503Z,1017.25
2019-01-05T05:40:07.505Z,1017.13
2019-01-05T05:41:07.470Z,1017.19
2019-01-05T05:42:07.462Z,1017.18
2019-01-05T05:43:07.453Z,1017.17
2019-01-05T05:44:07.492Z,1017.13
2019-01-05T05:45:07.465Z,1017.14
2019-01-05T05:46:07.413Z,1017.20
2019-01-05T05:47:07.404Z,1017.22
2019-01-05T05:48:07.421Z,1017.13
2019-01-05T05:49:07.397Z,1017.14
2019-01-05T05:50:07.372Z,1017.12
2019-01-05T05:51:07.360Z,1017.12
2019-01-05T05:52:07.358Z,1017.13
2019-01-05T05:53:07.412Z,1017.01
2019-01-05T05:54:07.342Z,1017.08
2019-01-05T05:55:07.324Z,1017.02
2019-01-05T05:56:07.303Z,1016.97
2019-01-05T05:57:07.294Z,1017.12
2019-01-05T05:58:07.281Z,1017.08
2019-01-05T05:59:07.289Z,1017.08
2019-01-05T06:00:07.261Z,1017.13
2019-01-05T06:01:07.260Z,1017.07
2019-01-05T06:02:07.244Z,1017.09
2019-01-05T06:03:07.253Z,1017.10
2019-01-05T06:04:07.244Z,1017.13
2019-01-05T06:05:07.218Z,1017.19
2019-01-05T06:06:07.190Z,1017.17
2019-01-05T06:07:07.183Z,1017.22
2019-01-05T06:08:07.188Z,1017.27
2019-01-05T06:09:07.198Z,1017.29
2019-01-05T06:10:07.162Z,1017.22
2019-01-05T06:11:07.141Z,1017.25
2019-01-05T06:12:07.125Z,1017.24
2019-01-05T06:13:07.166Z,1017.25
2019-01-05T06:14:07.103Z,1017.27
2019-01-05T06:15:07.111Z,1017.28
2019-01-05T06:16:07.083Z,1017.29
2019-01-05T06:17:07.070Z,1017.30
2019-01-05T06:18:07.056Z,1017.33
2019-01-05T06:19:07.046Z,1017.32
2019-01-05T06:20:07.069Z,1017.25
2019-01-05T06:21:07.024Z,1017.31
2019-01-05T06:22:07.015Z,1017.28
2019-01-05T06:23:07.051Z,1017.28
2019-01-05T06:24:06.993Z,1017.29
2019-01-05T06:25:06.998Z,1017.31
2019-01-05T06:26:06.974Z,1017.22
2019-01-05T06:27:06.960Z,1017.28
2019-01-05T06:28:06.948Z,1017.26
2019-01-05T06:29:06.941Z,1017.33
2019-01-05T06:30:06.940Z,1017.30
2019-01-05T06:31:06.936Z,1017.29
2019-01-05T06:32:06.946Z,1017.29
2019-01-05T06:33:06.892Z,1017.25
2019-01-05T06:34:06.887Z,1017.31
2019-01-05T06:35:06.877Z,1017.31
2019-01-05T06:36:06.866Z,1017.21
2019-01-05T06:37:06.851Z,1017.30
2019-01-05T06:38:06.836Z,1017.25
2019-01-05T06:39:06.859Z,1017.22
2019-01-05T06:40:06.840Z,1017.21
2019-01-05T06:41:07.321Z,1017.23
2019-01-05T06:42:06.792Z,1017.20
2019-01-05T06:43:06.780Z,1017.27
2019-01-05T06:44:06.777Z,1017.25
2019-01-05T06:45:06.765Z,1017.19
2019-01-05T06:46:06.742Z,1017.18
2019-01-05T06:47:06.745Z,1017.21
2019-01-05T06:48:06.720Z,1017.24
2019-01-05T06:49:06.712Z,1017.23
2019-01-05T06:50:06.720Z,1017.25
2019-01-05T06:51:06.688Z,1017.11
2019-01-05T06:52:06.675Z,1017.21
2019-01-05T06:53:06.676Z,1017.22
2019-01-05T06:54:06.673Z,1017.20
2019-01-05T06:55:06.655Z,1017.25
2019-01-05T06:56:06.630Z,1017.20
2019-01-05T06:57:06.619Z,1017.23
2019-01-05T06:58:06.615Z,1017.22
2019-01-05T06:59:06.597Z,1017.27
2019-01-05T07:00:06.596Z,1017.17
2019-01-05T07:01:06.575Z,1017.27
2019-01-05T07:02:06.562Z,1017.27
2019-01-05T07:03:06.553Z,1017.33
2019-01-05T07:04:06.542Z,1017.38
2019-01-05T07:05:06.542Z,1017.32
2019-01-05T07:06:06.518Z,1017.30
2019-01-05T07:07:06.509Z,1017.27
2019-01-05T07:08:06.496Z,1017.41
2019-01-05T07:09:06.484Z,1017.35
2019-01-05T07:10:06.494Z,1017.39
2019-01-05T07:11:06.463Z,1017.42
2019-01-05T07:12:06.453Z,1017.40
2019-01-05T07:13:06.444Z,1017.42
2019-01-05T07:14:06.428Z,1017.44
2019-01-05T07:15:06.448Z,1017.41
2019-01-05T07:16:06.419Z,1017.42
2019-01-05T07:17:06.416Z,1017.48
2019-01-05T07:18:06.387Z,1017.46
2019-01-05T07:19:06.380Z,1017.55
2019-01-05T07:20:06.361Z,1017.50
2019-01-05T07:21:06.363Z,1017.58
2019-01-05T07:22:06.342Z,1017.54
2019-01-05T07:23:06.334Z,1017.53
2019-01-05T07:24:06.319Z,1017.62
2019-01-05T07:25:06.308Z,1017.58
2019-01-05T07:26:06.307Z,1017.59
2019-01-05T07:27:06.281Z,1017.60
2019-01-05T07:28:06.271Z,1017.63
2019-01-05T07:29:06.277Z,1017.63
2019-01-05T07:30:06.255Z,1017.57
2019-01-05T07:31:06.250Z,1017.70
2019-01-05T07:32:06.227Z,1017.66
2019-01-05T07:33:06.215Z,1017.71
2019-01-05T07:34:06.209Z,1017.67
2019-01-05T07:35:06.196Z,1017.71
2019-01-05T07:36:06.197Z,1017.73
2019-01-05T07:37:06.191Z,1017.77
2019-01-05T07:38:06.161Z,1017.73
2019-01-05T07:39:06.147Z,1017.76
2019-01-05T07:40:06.159Z,1017.70
2019-01-05T07:41:06.136Z,1017.78
2019-01-05T07:42:06.117Z,1017.80
2019-01-05T07:43:06.121Z,1017.82
2019-01-05T07:44:06.092Z,1017.81
2019-01-05T07:45:06.081Z,1017.83
2019-01-05T07:46:06.095Z,1017.89
2019-01-05T07:47:06.057Z,1017.86
2019-01-05T07:48:06.046Z,1017.94
2019-01-05T07:49:06.041Z,1017.93
2019-01-05T07:50:06.035Z,1017.96
2019-01-05T07:51:06.024Z,1017.92
2019-01-05T07:52:06.019Z,1017.99
2019-01-05T07:53:06.004Z,1018.04
2019-01-05T07:54:05.980Z,1018.04
2019-01-05T07:55:05.985Z,1018.05
2019-01-05T07:56:05.969Z,1018.04
2019-01-05T07:57:05.949Z,1018.02
2019-01-05T07:58:05.938Z,1018.09
2019-01-05T07:59:05.927Z,1018.09
2019-01-05T08:00:05.929Z,1018.05
2019-01-05T08:01:05.914Z,1018.10
2019-01-05T08:02:05.890Z,1018.10
2019-01-05T08:03:05.941Z,1018.09
2019-01-05T08:04:05.874Z,1018.05
2019-01-05T08:05:05.862Z,1018.16
2019-01-05T08:06:05.910Z,1018.17
2019-01-05T08:07:05.841Z,1018.19
2019-01-05T08:08:05.826Z,1018.16
2019-01-05T08:09:05.830Z,1018.16
2019-01-05T08:10:05.816Z,1018.23
2019-01-05T08:11:05.794Z,1018.17
2019-01-05T08:12:05.799Z,1018.17
2019-01-05T08:13:05.767Z,1018.22
2019-01-05T08:14:05.767Z,1018.21
2019-01-05T08:15:05.748Z,1018.19
2019-01-05T08:16:05.743Z,1018.24
2019-01-05T08:17:05.742Z,1018.25
2019-01-05T08:18:05.713Z,1018.24
2019-01-05T08:19:05.705Z,1018.29
2019-01-05T08:20:05.697Z,1018.24
2019-01-05T08:21:05.679Z,1018.23
2019-01-05T08:22:05.679Z,1018.34
2019-01-05T08:23:05.658Z,1018.32
2019-01-05T08:24:05.644Z,1018.27
2019-01-05T08:25:05.634Z,1018.33
2019-01-05T08:26:05.643Z,1018.32
2019-01-05T08:27:05.627Z,1018.31
2019-01-05T08:28:05.602Z,1018.30
2019-01-05T08:29:05.599Z,1018.34
2019-01-05T08:30:05.715Z,1018.23
2019-01-05T08:31:05.582Z,1018.28
2019-01-05T08:32:05.574Z,1018.24
2019-01-05T08:33:05.560Z,1018.25
2019-01-05T08:34:05.537Z,1018.20
2019-01-05T08:35:05.526Z,1018.23
2019-01-05T08:36:05.512Z,1018.23
2019-01-05T08:37:05.514Z,1018.21
2019-01-05T08:38:05.490Z,1018.20
2019-01-05T08:39:05.487Z,1018.18
2019-01-05T08:40:05.467Z,1018.27
2019-01-05T08:41:05.468Z,1018.27
2019-01-05T08:42:05.459Z,1018.23
2019-01-05T08:43:05.436Z,1018.18
2019-01-05T08:44:05.423Z,1018.24
2019-01-05T08:45:05.435Z,1018.22
2019-01-05T08:46:05.404Z,1018.19
2019-01-05T08:47:05.403Z,1018.22
2019-01-05T08:48:05.384Z,1018.19
2019-01-05T08:49:05.385Z,1018.20
2019-01-05T08:50:05.358Z,1018.23
2019-01-05T08:51:05.364Z,1018.23
2019-01-05T08:52:05.346Z,1018.21
2019-01-05T08:53:05.322Z,1018.24
2019-01-05T08:54:05.346Z,1018.23
2019-01-05T08:55:05.298Z,1018.17
2019-01-05T08:56:05.287Z,1018.18
2019-01-05T08:57:05.331Z,1018.20
2019-01-05T08:58:05.269Z,1018.20
2019-01-05T08:59:05.255Z,1018.15
2019-01-05T09:00:05.246Z,1018.16
2019-01-05T09:01:05.233Z,1018.11
2019-01-05T09:02:05.271Z,1018.11
2019-01-05T09:03:05.211Z,1018.11
2019-01-05T09:04:05.221Z,1018.10
2019-01-05T09:05:05.189Z,1018.12
2019-01-05T09:06:05.189Z,1018.16
2019-01-05T09:07:05.165Z,1018.15
2019-01-05T09:08:05.167Z,1018.16
2019-01-05T09:09:05.145Z,1018.16
2019-01-05T09:10:05.135Z,1018.18
2019-01-05T09:11:05.131Z,1018.22
2019-01-05T09:12:05.131Z,1018.23
2019-01-05T09:13:05.111Z,1018.18
2019-01-05T09:14:05.094Z,1018.22
2019-01-05T09:15:05.082Z,1018.24
2019-01-05T09:16:05.065Z,1018.18
2019-01-05T09:17:05.064Z,1018.24
2019-01-05T09:18:05.054Z,1018.27
2019-01-05T09:19:05.049Z,1018.32
2019-01-05T09:20:05.022Z,1018.25
2019-01-05T09:21:05.014Z,1018.26
2019-01-05T09:22:04.998Z,1018.29
2019-01-05T09:23:05.007Z,1018.31
2019-01-05T09:24:04.979Z,1018.36
2019-01-05T09:25:04.966Z,1018.35
2019-01-05T09:26:04.953Z,1018.39
2019-01-05T09:27:04.962Z,1018.32
2019-01-05T09:28:04.948Z,1018.37
2019-01-05T09:29:04.922Z,1018.36
2019-01-05T09:30:04.911Z,1018.37
2019-01-05T09:31:04.902Z,1018.38
2019-01-05T09:32:04.887Z,1018.33
2019-01-05T09:33:04.913Z,1018.37
2019-01-05T09:34:04.930Z,1018.37
2019-01-05T09:35:04.895Z,1018.34
2019-01-05T09:36:04.842Z,1018.40
2019-01-05T09:37:04.829Z,1018.31
2019-01-05T09:38:04.851Z,1018.34
2019-01-05T09:39:04.806Z,1018.31
2019-01-05T09:40:04.804Z,1018.29
2019-01-05T09:41:04.800Z,1018.24
2019-01-05T09:42:04.775Z,1018.18
2019-01-05T09:43:04.813Z,1018.18
2019-01-05T09:44:04.754Z,1018.08
2019-01-05T09:45:04.750Z,1018.03
2019-01-05T09:46:04.731Z,1018.01
2019-01-05T09:47:04.719Z,1017.95
2019-01-05T09:48:04.786Z,1018.03
2019-01-05T09:49:04.702Z,1018.09
2019-01-05T09:50:04.696Z,1018.10
2019-01-05T09:51:04.674Z,1017.93
2019-01-05T09:52:04.684Z,1017.91
2019-01-05T09:53:04.681Z,1018.07
2019-01-05T09:54:04.654Z,1018.17
2019-01-05T09:55:04.628Z,1018.21
2019-01-05T09:56:04.651Z,1018.15
2019-01-05T09:57:04.611Z,1018.13
2019-01-05T09:58:04.615Z,1018.13
2019-01-05T09:59:04.595Z,1018.06
2019-01-05T10:00:04.573Z,1018.07
2019-01-05T10:01:04.578Z,1018.09
2019-01-05T10:02:04.572Z,1018.14
2019-01-05T10:03:04.549Z,1018.18
2019-01-05T10:04:04.542Z,1018.15
2019-01-05T10:05:04.519Z,1018.11
2019-01-05T10:06:04.547Z,1018.13
2019-01-05T10:07:04.492Z,1018.22
2019-01-05T10:08:04.490Z,1018.22
2019-01-05T10:09:04.495Z,1018.22
2019-01-05T10:10:04.466Z,1018.26
2019-01-05T10:11:04.458Z,1018.18
2019-01-05T10:12:04.438Z,1018.20
2019-01-05T10:13:04.429Z,1018.18
2019-01-05T10:14:04.444Z,1018.22
2019-01-05T10:15:04.404Z,1018.19
2019-01-05T10:16:04.397Z,1018.19
2019-01-05T10:17:04.386Z,1018.18
2019-01-05T10:18:04.372Z,1018.21
2019-01-05T10:19:04.388Z,1018.18
2019-01-05T10:20:04.367Z,1018.21
2019-01-05T10:21:04.351Z,1018.21
2019-01-05T10:22:04.324Z,1018.24
2019-01-05T10:23:04.318Z,1018.19
2019-01-05T10:24:04.322Z,1018.17
2019-01-05T10:25:04.331Z,1018.22
2019-01-05T10:26:04.278Z,1018.19
2019-01-05T10:27:04.270Z,1018.18
2019-01-05T10:28:04.257Z,1018.14
2019-01-05T10:29:04.257Z,1018.17
2019-01-05T10:30:04.235Z,1018.14
2019-01-05T10:31:04.225Z,1018.19
2019-01-05T10:32:04.283Z,1018.19
2019-01-05T10:33:04.202Z,1018.16
2019-01-05T10:34:04.212Z,1018.09
2019-01-05T10:35:04.179Z,1018.12
2019-01-05T10:36:04.167Z,1018.13
2019-01-05T10:37:04.160Z,1018.08
2019-01-05T10:38:04.157Z,1018.12
2019-01-05T10:39:04.164Z,1018.07
2019-01-05T10:40:04.121Z,1018.07
2019-01-05T10:41:04.113Z,1018.10
2019-01-05T10:42:04.101Z,1018.08
2019-01-05T10:43:04.089Z,1018.06
2019-01-05T10:44:04.119Z,1018.08
2019-01-05T10:45:04.071Z,1018.06
2019-01-05T10:46:04.070Z,1018.07
2019-01-05T10:47:04.044Z,1018.13
2019-01-05T10:48:04.040Z,1018.10
2019-01-05T10:49:04.022Z,1018.11
2019-01-05T10:50:04.049Z,1018.07
2019-01-05T10:51:04.008Z,1018.12
2019-01-05T10:52:04.007Z,1018.09
2019-01-05T10:53:03.979Z,1018.10
2019-01-05T10:54:03.965Z,1018.06
2019-01-05T10:55:03.967Z,1018.07
2019-01-05T10:56:03.942Z,1018.03
2019-01-05T10:57:03.934Z,1018.08
2019-01-05T10:58:03.922Z,1018.04
2019-01-05T10:59:03.948Z,1018.02
2019-01-05T11:00:04.848Z,1018.03
2019-01-05T11:01:03.889Z,1018.03
2019-01-05T11:02:03.900Z,1018.04
2019-01-05T11:03:03.902Z,1018.08
2019-01-05T11:04:03.864Z,1018.02
2019-01-05T11:05:03.857Z,1017.98
2019-01-05T11:06:03.833Z,1018.05
2019-01-05T11:07:03.843Z,1018.06
2019-01-05T11:08:03.812Z,1018.08
2019-01-05T11:09:03.799Z,1018.05
2019-01-05T11:10:03.798Z,1018.02
2019-01-05T11:11:03.774Z,1018.05
2019-01-05T11:12:03.775Z,1018.07
2019-01-05T11:13:03.762Z,1018.08
2019-01-05T11:14:03.740Z,1018.04
2019-01-05T11:15:03.755Z,1018.01
2019-01-05T11:16:03.724Z,1018.02
2019-01-05T11:17:03.710Z,1018.03
2019-01-05T11:18:03.697Z,1018.09
2019-01-05T11:19:03.691Z,1018.04
2019-01-05T11:20:03.696Z,1018.02
2019-01-05T11:21:03.690Z,1018.04
2019-01-05T11:22:03.659Z,1018.03
2019-01-05T11:23:03.642Z,1018.06
2019-01-05T11:24:03.628Z,1018.08
2019-01-05T11:25:03.636Z,1018.07
2019-01-05T11:26:03.612Z,1018.05
2019-01-05T11:27:03.596Z,1018.01
2019-01-05T11:28:03.593Z,1018.01
2019-01-05T11:29:03.573Z,1017.97
2019-01-05T11:30:03.593Z,1017.99
2019-01-05T11:31:03.569Z,1017.94
2019-01-05T11:32:03.542Z,1017.96
2019-01-05T11:33:03.528Z,1017.94
2019-01-05T11:34:03.520Z,1017.96
2019-01-05T11:35:03.526Z,1017.96
2019-01-05T11:36:03.504Z,1017.91
2019-01-05T11:37:03.483Z,1017.95
2019-01-05T11:38:03.475Z,1017.92
2019-01-05T11:39:03.553Z,1017.93
2019-01-05T11:40:03.461Z,1017.92
2019-01-05T11:41:03.470Z,1017.86
2019-01-05T11:42:03.535Z,1017.94
2019-01-05T11:43:03.427Z,1017.91
2019-01-05T11:44:03.405Z,1017.95
2019-01-05T11:45:03.411Z,1017.91
2019-01-05T11:46:03.389Z,1017.96
2019-01-05T11:47:03.376Z,1017.98
2019-01-05T11:48:03.375Z,1017.97
2019-01-05T11:49:03.350Z,1017.93
2019-01-05T11:50:03.434Z,1017.87
2019-01-05T11:51:03.328Z,1017.90
2019-01-05T11:52:03.331Z,1017.92
2019-01-05T11:53:03.358Z,1017.91
2019-01-05T11:54:03.293Z,1017.86
2019-01-05T11:55:03.294Z,1017.86
2019-01-05T11:56:03.367Z,1017.87
2019-01-05T11:57:03.267Z,1017.86
2019-01-05T11:58:03.249Z,1017.88
2019-01-05T11:59:03.273Z,1017.89
2019-01-05T12:00:03.224Z,1017.85
2019-01-05T12:01:03.239Z,1017.81
2019-01-05T12:02:03.203Z,1017.84
2019-01-05T12:03:03.203Z,1017.81
2019-01-05T12:04:03.181Z,1017.82
2019-01-05T12:05:03.181Z,1017.80